Terminal Aerodrome Forecast
Issued by NWS Houston/Galveston, TX

Home | Current Version | Previous Version | Text Only | Print | Product List | Glossary On
Versions: 1 2 3 4 5 6 7 8 9 10 11 12 13 14 15 16
000
FTUS44 KHGX 191740
TAFGLS
TAF
KGLS 191740Z 1918/2018 06009KT P6SM -RA VCSH SCT045 OVC100
     FM192100 12011KT P6SM VCTS OVC025CB
     FM200000 13011KT P6SM OVC015
     FM200300 11010KT 5SM BR OVC008
     FM200600 14013KT 4SM BR OVC005
     FM201500 16009KT 4SM BR OVC007=

USA.gov is the U.S. government's official web portal to all federal, state and local government web resources and services.